Time;durP1;ratioP1;P1;durP2;ratioP2;P2;SDS_P1;SDS_P2;PMS_P1;PMS_P2;Temp;Humidity;BMP_temperature;BMP_pressure;BME280_temperature;BME280_humidity;BME280_pressure;Samples;Min_cycle;Max_cycle;Signal;HPM_P1;HPM_P2
2021/08/12 00:01:27;;;;;;;;;;;17.70;99.90;;;;;;5011511;28;20295;-73
2021/08/12 00:03:54;;;;;;;;;;;17.70;99.90;;;;;;5011205;28;19992;-74
2021/08/12 00:06:20;;;;;;;;;;;17.70;99.90;;;;;;5013123;28;19947;-73
2021/08/12 00:08:47;;;;;;;;;;;17.70;99.90;;;;;;5028729;28;20410;-74
2021/08/12 00:11:19;;;;;;;;;;;17.70;99.90;;;;;;5027041;28;19925;-74
2021/08/12 00:13:50;;;;;;;;;;;17.60;99.90;;;;;;5011409;28;20540;-73
2021/08/12 00:16:22;;;;;;;;;;;17.60;99.90;;;;;;5011244;28;19925;-74
2021/08/12 00:18:55;;;;;;;;;;;17.50;99.90;;;;;;5010989;28;19926;-74
2021/08/12 00:21:27;;;;;;;;;;;17.50;99.90;;;;;;5026641;28;20490;-73
2021/08/12 00:23:59;;;;;;;;;;;17.50;99.90;;;;;;5026780;28;20036;-74
2021/08/12 00:26:31;;;;;;;;;;;17.40;99.90;;;;;;5011036;28;19932;-74
2021/08/12 00:28:57;;;;;;;;;;;17.40;99.90;;;;;;5011057;28;20012;-73
2021/08/12 00:31:30;;;;;;;;;;;17.40;99.90;;;;;;5010947;28;19925;-73
2021/08/12 00:34:01;;;;;;;;;;;17.30;99.90;;;;;;5010976;28;19957;-74
2021/08/12 00:36:34;;;;;;;;;;;17.40;99.90;;;;;;5026410;28;19932;-74
2021/08/12 00:39:03;;;;;;;;;;;17.30;99.90;;;;;;5010903;28;19972;-74
2021/08/12 00:41:35;;;;;;;;;;;17.30;99.90;;;;;;5011194;28;20291;-73
2021/08/12 00:44:10;;;;;;;;;;;17.30;99.90;;;;;;5026190;28;19926;-73
2021/08/12 00:46:43;;;;;;;;;;;17.30;99.90;;;;;;5010860;28;20358;-74
2021/08/12 00:49:18;;;;;;;;;;;17.20;99.90;;;;;;5026190;28;19925;-74
2021/08/12 00:51:47;;;;;;;;;;;17.20;99.90;;;;;;5010574;28;19925;-73
2021/08/12 00:54:21;;;;;;;;;;;17.10;99.90;;;;;;5027228;28;20412;-74
2021/08/12 00:56:53;;;;;;;;;;;17.10;99.90;;;;;;5010754;28;19925;-74
2021/08/12 00:59:20;;;;;;;;;;;17.10;99.90;;;;;;5010527;28;20020;-73
2021/08/12 01:01:47;;;;;;;;;;;17.10;99.90;;;;;;5009943;28;19971;-73
2021/08/12 01:04:14;;;;;;;;;;;17.10;99.90;;;;;;5010146;28;20023;-74
2021/08/12 01:06:56;;;;;;;;;;;17.00;99.90;;;;;;5025914;28;19929;-74
2021/08/12 01:09:29;;;;;;;;;;;17.00;99.90;;;;;;5010112;28;19926;-73
2021/08/12 01:11:58;;;;;;;;;;;16.90;99.90;;;;;;5009882;28;19934;-73
2021/08/12 01:14:30;;;;;;;;;;;16.90;99.90;;;;;;5010134;28;19930;-73
2021/08/12 01:17:07;;;;;;;;;;;16.90;99.90;;;;;;5009908;28;20391;-74
2021/08/12 01:19:46;;;;;;;;;;;16.90;99.90;;;;;;5009855;28;19925;-74
2021/08/12 01:22:19;;;;;;;;;;;16.90;99.90;;;;;;5009785;28;20379;-74
2021/08/12 01:24:56;;;;;;;;;;;16.90;99.90;;;;;;5026408;28;20036;-74
2021/08/12 01:27:32;;;;;;;;;;;16.80;99.90;;;;;;5010029;28;19926;-74
2021/08/12 01:30:05;;;;;;;;;;;16.80;99.90;;;;;;5026581;28;19926;-74
2021/08/12 01:32:33;;;;;;;;;;;16.80;99.90;;;;;;5013154;28;19925;-74
2021/08/12 01:35:06;;;;;;;;;;;16.80;99.90;;;;;;5014174;28;19984;-74
2021/08/12 01:37:39;;;;;;;;;;;16.90;99.90;;;;;;5013945;28;20388;-74
2021/08/12 01:40:12;;;;;;;;;;;16.80;99.90;;;;;;5029747;28;19926;-74
2021/08/12 01:42:45;;;;;;;;;;;16.80;99.90;;;;;;5028623;28;19925;-73
2021/08/12 01:45:18;;;;;;;;;;;16.80;99.90;;;;;;5013369;28;20372;-74
2021/08/12 01:47:50;;;;;;;;;;;16.80;99.90;;;;;;5029016;28;19925;-74
2021/08/12 01:50:17;;;;;;;;;;;16.70;99.90;;;;;;5013095;28;20020;-73
2021/08/12 01:52:49;;;;;;;;;;;16.70;99.90;;;;;;5029842;28;20024;-74
2021/08/12 01:55:20;;;;;;;;;;;16.60;99.90;;;;;;5013451;28;20358;-73
2021/08/12 01:57:48;;;;;;;;;;;16.60;99.90;;;;;;5013681;28;20384;-74
2021/08/12 02:00:16;;;;;;;;;;;16.50;99.90;;;;;;5013456;28;20399;-74
2021/08/12 02:02:48;;;;;;;;;;;16.50;99.90;;;;;;5029089;28;19933;-74
2021/08/12 02:05:16;;;;;;;;;;;16.50;99.90;;;;;;5029961;28;19964;-74
2021/08/12 02:07:47;;;;;;;;;;;16.50;99.90;;;;;;5013336;28;20388;-74
2021/08/12 02:10:19;;;;;;;;;;;16.50;99.90;;;;;;5013577;28;20008;-74
2021/08/12 02:12:53;;;;;;;;;;;16.40;99.90;;;;;;5013015;28;19925;-74
2021/08/12 02:15:19;;;;;;;;;;;16.40;99.90;;;;;;5013469;28;19925;-74
2021/08/12 02:17:46;;;;;;;;;;;16.40;99.90;;;;;;5013105;28;19983;-74
2021/08/12 02:20:18;;;;;;;;;;;16.40;99.90;;;;;;5013244;28;19925;-74
2021/08/12 02:22:49;;;;;;;;;;;16.40;99.90;;;;;;5012778;28;20409;-73
2021/08/12 02:25:26;;;;;;;;;;;16.40;99.90;;;;;;5029464;28;19926;-74
2021/08/12 02:27:54;;;;;;;;;;;16.40;99.90;;;;;;5014256;28;20027;-74
2021/08/12 02:30:26;;;;;;;;;;;16.30;99.90;;;;;;5013029;28;19926;-73
2021/08/12 02:32:54;;;;;;;;;;;16.30;99.90;;;;;;5012474;28;19980;-73
2021/08/12 02:35:26;;;;;;;;;;;16.30;99.90;;;;;;5029160;28;19929;-74
2021/08/12 02:37:59;;;;;;;;;;;16.30;99.90;;;;;;5012764;28;19925;-74
2021/08/12 02:40:31;;;;;;;;;;;16.30;99.90;;;;;;5012847;28;19932;-73
2021/08/12 02:43:03;;;;;;;;;;;16.30;99.90;;;;;;5012202;28;19932;-73
2021/08/12 02:45:36;;;;;;;;;;;16.30;99.90;;;;;;5029243;28;19930;-73
2021/08/12 02:48:03;;;;;;;;;;;16.30;99.90;;;;;;5012659;28;19953;-73
2021/08/12 02:50:37;;;;;;;;;;;16.20;99.90;;;;;;5013879;28;20016;-74
2021/08/12 02:53:09;;;;;;;;;;;16.20;99.90;;;;;;5028026;28;19952;-74
2021/08/12 02:55:37;;;;;;;;;;;16.10;99.90;;;;;;5012293;28;20020;-74
2021/08/12 02:58:09;;;;;;;;;;;16.10;99.90;;;;;;5012403;28;19926;-74
2021/08/12 03:00:37;;;;;;;;;;;16.10;99.90;;;;;;5012410;28;19964;-73
2021/08/12 03:03:04;;;;;;;;;;;16.00;99.90;;;;;;5012071;28;19926;-73
2021/08/12 03:05:32;;;;;;;;;;;16.00;99.90;;;;;;5012391;28;19929;-74
2021/08/12 03:08:06;;;;;;;;;;;16.00;99.90;;;;;;5012062;28;20283;-73
2021/08/12 03:10:39;;;;;;;;;;;16.00;99.90;;;;;;5012247;28;20142;-73
2021/08/12 03:13:06;;;;;;;;;;;16.00;99.90;;;;;;5011922;28;19926;-73
2021/08/12 03:15:38;;;;;;;;;;;16.00;99.90;;;;;;5012269;28;19976;-73
2021/08/12 03:18:11;;;;;;;;;;;15.90;99.90;;;;;;5012088;28;19929;-73
2021/08/12 03:20:43;;;;;;;;;;;15.80;99.90;;;;;;5028277;28;20074;-74
2021/08/12 03:23:16;;;;;;;;;;;15.90;99.90;;;;;;5011797;28;19926;-74
2021/08/12 03:25:48;;;;;;;;;;;15.80;99.90;;;;;;5027515;28;19926;-74
2021/08/12 03:28:15;;;;;;;;;;;15.90;99.90;;;;;;5011891;28;19983;-73
2021/08/12 03:30:47;;;;;;;;;;;15.80;99.90;;;;;;5011814;28;19929;-73
2021/08/12 03:33:18;;;;;;;;;;;15.90;99.90;;;;;;5011482;28;20395;-74
2021/08/12 03:35:50;;;;;;;;;;;15.90;99.90;;;;;;5027944;28;19925;-73
2021/08/12 03:38:22;;;;;;;;;;;15.80;99.90;;;;;;5027315;28;19925;-73
2021/08/12 03:40:49;;;;;;;;;;;15.80;99.90;;;;;;5011604;28;20379;-74
2021/08/12 03:43:17;;;;;;;;;;;15.70;99.90;;;;;;5011380;28;19936;-74
2021/08/12 03:45:49;;;;;;;;;;;15.80;99.90;;;;;;5011436;28;20033;-74
2021/08/12 03:48:21;;;;;;;;;;;15.70;99.90;;;;;;5027275;28;19956;-74
2021/08/12 03:50:47;;;;;;;;;;;15.70;99.90;;;;;;5027462;28;19971;-74
2021/08/12 03:53:14;;;;;;;;;;;15.70;99.90;;;;;;5011540;28;19929;-73
2021/08/12 03:55:46;;;;;;;;;;;15.70;99.90;;;;;;5027156;28;19976;-74
2021/08/12 03:58:17;;;;;;;;;;;15.70;99.90;;;;;;4994964;28;20032;-73
2021/08/12 04:00:44;;;;;;;;;;;15.70;99.90;;;;;;5010917;28;19979;-74
2021/08/12 04:03:11;;;;;;;;;;;15.70;99.90;;;;;;5010467;28;19973;-74
2021/08/12 04:05:37;;;;;;;;;;;15.60;99.90;;;;;;5010688;28;19975;-73
2021/08/12 04:08:12;;;;;;;;;;;15.60;99.90;;;;;;5010668;28;19941;-74
2021/08/12 04:10:39;;;;;;;;;;;15.60;99.90;;;;;;5010392;28;19925;-73
2021/08/12 04:13:05;;;;;;;;;;;15.60;99.90;;;;;;5010310;28;19926;-73
2021/08/12 04:15:33;;;;;;;;;;;15.60;99.90;;;;;;5010650;28;19925;-74
2021/08/12 04:18:05;;;;;;;;;;;15.60;99.90;;;;;;5026934;28;20032;-74
2021/08/12 04:20:31;;;;;;;;;;;15.70;99.90;;;;;;5026765;28;19929;-74
2021/08/12 04:23:03;;;;;;;;;;;15.70;99.90;;;;;;5026477;28;19932;-73
2021/08/12 04:25:35;;;;;;;;;;;15.70;99.90;;;;;;5010684;28;19976;-73
2021/08/12 04:28:08;;;;;;;;;;;15.60;99.90;;;;;;5010349;28;19925;-74
2021/08/12 04:30:35;;;;;;;;;;;15.60;99.90;;;;;;5011936;28;19976;-73
2021/08/12 04:33:07;;;;;;;;;;;15.60;99.90;;;;;;5010956;28;20295;-74
2021/08/12 04:35:39;;;;;;;;;;;15.60;99.90;;;;;;5026403;28;20331;-74
2021/08/12 04:38:06;;;;;;;;;;;15.50;99.90;;;;;;5010707;28;19929;-74
2021/08/12 04:40:38;;;;;;;;;;;15.50;99.90;;;;;;5026300;28;20498;-74
2021/08/12 04:43:06;;;;;;;;;;;15.50;99.90;;;;;;5010691;28;20182;-74
2021/08/12 04:45:34;;;;;;;;;;;15.50;99.90;;;;;;5010756;28;19948;-73
2021/08/12 04:48:06;;;;;;;;;;;15.60;99.90;;;;;;5010765;28;19932;-73
2021/08/12 04:50:37;;;;;;;;;;;15.60;99.90;;;;;;5010967;28;20028;-73
2021/08/12 04:53:09;;;;;;;;;;;15.60;99.90;;;;;;5010576;28;19972;-74
2021/08/12 04:55:41;;;;;;;;;;;15.60;99.90;;;;;;5026288;28;19932;-73
2021/08/12 04:58:12;;;;;;;;;;;15.60;99.90;;;;;;5010611;28;20486;-73
2021/08/12 05:00:40;;;;;;;;;;;15.60;99.90;;;;;;5010401;28;19976;-74
2021/08/12 05:03:07;;;;;;;;;;;15.60;99.90;;;;;;5010427;28;19933;-74
2021/08/12 05:05:35;;;;;;;;;;;15.70;99.90;;;;;;5010710;28;20016;-73
2021/08/12 05:08:07;;;;;;;;;;;15.70;99.90;;;;;;5013893;28;19944;-74
2021/08/12 05:10:38;;;;;;;;;;;15.70;99.90;;;;;;5014498;28;20368;-74
2021/08/12 05:13:05;;;;;;;;;;;15.80;99.90;;;;;;5014196;28;20459;-74
2021/08/12 05:15:37;;;;;;;;;;;15.80;99.90;;;;;;5014431;28;19929;-73
2021/08/12 05:18:09;;;;;;;;;;;15.80;99.90;;;;;;5030629;28;20441;-73
2021/08/12 05:20:40;;;;;;;;;;;15.90;99.90;;;;;;5014168;28;19945;-73
2021/08/12 05:23:15;;;;;;;;;;;15.90;99.90;;;;;;5013918;28;19926;-74
2021/08/12 05:25:43;;;;;;;;;;;15.90;99.90;;;;;;5030559;28;19976;-73
2021/08/12 05:28:15;;;;;;;;;;;15.90;99.90;;;;;;5013968;28;19934;-74
2021/08/12 05:30:42;;;;;;;;;;;16.00;99.90;;;;;;5014147;28;19956;-73
2021/08/12 05:33:15;;;;;;;;;;;16.00;99.90;;;;;;5030417;28;19925;-74
2021/08/12 05:35:47;;;;;;;;;;;16.10;99.90;;;;;;5029775;28;19933;-74
2021/08/12 05:38:15;;;;;;;;;;;16.10;99.90;;;;;;5018494;28;19931;-74
2021/08/12 05:40:42;;;;;;;;;;;16.10;99.90;;;;;;5043772;28;20303;-74
2021/08/12 05:43:13;;;;;;;;;;;16.20;99.90;;;;;;5003737;28;20390;-74
2021/08/12 05:45:45;;;;;;;;;;;16.20;99.90;;;;;;5024246;28;19925;-74
2021/08/12 05:48:12;;;;;;;;;;;16.20;99.90;;;;;;5024374;28;19932;-74
2021/08/12 05:50:44;;;;;;;;;;;16.20;99.90;;;;;;5012855;28;20016;-74
2021/08/12 05:53:11;;;;;;;;;;;16.20;99.90;;;;;;5041958;28;20330;-74
2021/08/12 05:55:43;;;;;;;;;;;16.30;99.90;;;;;;5034055;28;20024;-74
2021/08/12 05:58:15;;;;;;;;;;;16.30;99.90;;;;;;5002904;28;19925;-74
2021/08/12 06:00:47;;;;;;;;;;;16.20;99.90;;;;;;5032652;28;20402;-74
2021/08/12 06:03:19;;;;;;;;;;;16.30;99.90;;;;;;5048662;28;19932;-73
2021/08/12 06:05:55;;;;;;;;;;;16.30;99.90;;;;;;5015947;28;19929;-74
2021/08/12 06:08:29;;;;;;;;;;;16.30;99.90;;;;;;5005007;28;20323;-72
2021/08/12 06:10:56;;;;;;;;;;;16.30;99.90;;;;;;5029182;28;19925;-73
2021/08/12 06:19:15;;;;;;;;;;;16.50;99.90;;;;;;5134296;23;19950;-73
2021/08/12 06:21:46;;;;;;;;;;;16.60;99.90;;;;;;4966177;28;20344;-73
2021/08/12 06:24:18;;;;;;;;;;;16.70;99.90;;;;;;4970092;28;20044;-73
2021/08/12 06:26:45;;;;;;;;;;;16.80;99.90;;;;;;4955251;29;19930;-73
2021/08/12 06:29:17;;;;;;;;;;;16.90;99.90;;;;;;4969495;28;20021;-73
2021/08/12 06:31:49;;;;;;;;;;;16.90;99.90;;;;;;4943679;28;20408;-72
2021/08/12 06:34:22;;;;;;;;;;;17.00;99.90;;;;;;4966305;28;19930;-73
2021/08/12 06:36:48;;;;;;;;;;;17.10;99.90;;;;;;4953068;29;20028;-73
2021/08/12 06:39:15;;;;;;;;;;;17.20;99.90;;;;;;4953974;29;19954;-72
2021/08/12 06:41:43;;;;;;;;;;;17.30;99.90;;;;;;4953677;29;19962;-73
2021/08/12 06:44:17;;;;;;;;;;;17.40;99.90;;;;;;4953254;28;19926;-73
2021/08/12 06:46:49;;;;;;;;;;;17.50;99.90;;;;;;4945394;29;19930;-72
2021/08/12 06:49:16;;;;;;;;;;;17.60;99.90;;;;;;4953427;29;19926;-73
2021/08/12 06:51:48;;;;;;;;;;;17.80;99.90;;;;;;4953312;28;20373;-73
2021/08/12 06:54:15;;;;;;;;;;;17.90;99.90;;;;;;4937578;29;19926;-73
2021/08/12 06:56:46;;;;;;;;;;;18.00;99.90;;;;;;4938357;29;20448;-74
2021/08/12 06:59:18;;;;;;;;;;;18.10;99.90;;;;;;4930259;29;19985;-73
2021/08/12 07:01:51;;;;;;;;;;;18.20;99.90;;;;;;4949773;29;19934;-73
2021/08/12 07:04:23;;;;;;;;;;;18.40;99.90;;;;;;4950293;29;19949;-73
2021/08/12 07:06:49;;;;;;;;;;;18.50;99.90;;;;;;4939942;28;19927;-73
2021/08/12 07:09:16;;;;;;;;;;;18.50;99.90;;;;;;4945157;29;19933;-73
2021/08/12 07:11:47;;;;;;;;;;;18.60;99.90;;;;;;4952638;28;20412;-73
2021/08/12 07:14:14;;;;;;;;;;;18.70;99.90;;;;;;4953007;29;19930;-73
2021/08/12 07:16:42;;;;;;;;;;;18.80;99.90;;;;;;4939499;29;20017;-73
2021/08/12 07:19:08;;;;;;;;;;;18.90;99.90;;;;;;4968962;28;20782;-73
2021/08/12 07:21:35;;;;;;;;;;;18.90;99.90;;;;;;4946431;28;19970;-73
2021/08/12 07:24:07;;;;;;;;;;;18.90;99.90;;;;;;4948097;29;19927;-73
2021/08/12 07:26:41;;;;;;;;;;;18.90;99.90;;;;;;4951915;29;19927;-73
2021/08/12 07:29:13;;;;;;;;;;;18.80;99.90;;;;;;4936289;29;19969;-73
2021/08/12 07:31:47;;;;;;;;;;;18.80;99.90;;;;;;4968010;28;19953;-73
2021/08/12 07:34:21;;;;;;;;;;;18.80;99.90;;;;;;4967857;28;20447;-73
2021/08/12 07:36:54;;;;;;;;;;;18.90;99.90;;;;;;4951678;28;19927;-74
2021/08/12 07:39:21;;;;;;;;;;;19.00;99.90;;;;;;4969179;28;19933;-73
2021/08/12 07:41:53;;;;;;;;;;;19.00;99.90;;;;;;4937257;29;20029;-73
2021/08/12 07:44:20;;;;;;;;;;;19.10;99.90;;;;;;4956908;28;19926;-72
2021/08/12 07:46:47;;;;;;;;;;;19.20;99.90;;;;;;4970297;28;19978;-73
2021/08/12 07:49:18;;;;;;;;;;;19.40;99.90;;;;;;4968570;28;20009;-73
2021/08/12 07:51:51;;;;;;;;;;;19.50;99.90;;;;;;4966681;28;19930;-73
2021/08/12 07:54:17;;;;;;;;;;;19.60;99.90;;;;;;4952883;28;19970;-73
2021/08/12 07:56:52;;;;;;;;;;;19.70;99.90;;;;;;4966818;28;20345;-73
2021/08/12 07:59:19;;;;;;;;;;;19.70;99.90;;;;;;4952645;29;20312;-73
2021/08/12 08:01:53;;;;;;;;;;;19.90;99.90;;;;;;4952167;29;19935;-73
2021/08/12 08:04:19;;;;;;;;;;;19.90;99.90;;;;;;4952663;28;19981;-73
2021/08/12 08:06:46;;;;;;;;;;;20.00;99.90;;;;;;4948231;29;20030;-73
2021/08/12 08:09:13;;;;;;;;;;;20.20;99.90;;;;;;4936636;29;20555;-73
2021/08/12 08:11:45;;;;;;;;;;;20.30;99.90;;;;;;4964307;28;19927;-73
2021/08/12 08:14:16;;;;;;;;;;;20.40;99.90;;;;;;4941171;29;19973;-73
2021/08/12 08:16:48;;;;;;;;;;;20.50;99.90;;;;;;4967601;28;19926;-74
2021/08/12 08:19:21;;;;;;;;;;;20.70;99.90;;;;;;4953231;28;20407;-73
2021/08/12 08:21:47;;;;;;;;;;;20.80;99.90;;;;;;4940889;29;19926;-73
2021/08/12 08:24:19;;;;;;;;;;;20.90;99.90;;;;;;4942823;29;19926;-74
2021/08/12 08:26:46;;;;;;;;;;;21.10;99.90;;;;;;4947007;29;19964;-74
2021/08/12 08:29:18;;;;;;;;;;;21.20;99.90;;;;;;4966992;28;20305;-73
2021/08/12 08:31:49;;;;;;;;;;;21.30;99.90;;;;;;4951428;29;19934;-73
2021/08/12 08:34:16;;;;;;;;;;;21.50;99.90;;;;;;4951621;29;19933;-73
2021/08/12 08:36:49;;;;;;;;;;;21.60;99.90;;;;;;4951457;29;19938;-74
2021/08/12 08:39:20;;;;;;;;;;;21.70;99.90;;;;;;4965678;28;20307;-73
2021/08/12 08:41:53;;;;;;;;;;;21.90;99.90;;;;;;4954622;29;20307;-74
2021/08/12 08:44:24;;;;;;;;;;;22.00;99.90;;;;;;4971561;28;20304;-74
2021/08/12 08:46:52;;;;;;;;;;;22.20;99.90;;;;;;4971117;28;20033;-74
2021/08/12 08:49:21;;;;;;;;;;;22.30;99.90;;;;;;4970948;28;20367;-74
2021/08/12 08:51:53;;;;;;;;;;;22.50;99.90;;;;;;4968425;28;19933;-74
2021/08/12 08:54:20;;;;;;;;;;;22.70;99.90;;;;;;4967034;28;19927;-74
2021/08/12 08:56:52;;;;;;;;;;;22.80;99.90;;;;;;4956015;29;19926;-74
2021/08/12 08:59:25;;;;;;;;;;;23.00;99.90;;;;;;4971019;28;19926;-74
2021/08/12 09:01:51;;;;;;;;;;;23.20;99.90;;;;;;4970413;28;19935;-73
2021/08/12 09:04:23;;;;;;;;;;;23.30;99.90;;;;;;4970422;28;19965;-73
2021/08/12 09:06:50;;;;;;;;;;;23.40;99.90;;;;;;4954778;29;19961;-74
2021/08/12 09:09:22;;;;;;;;;;;23.50;99.90;;;;;;4955006;29;19965;-74
2021/08/12 09:11:56;;;;;;;;;;;23.50;99.90;;;;;;4955519;28;20364;-74
2021/08/12 09:14:40;;;;;;;;;;;23.50;99.90;;;;;;4953595;29;20025;-73
2021/08/12 09:17:20;;;;;;;;;;;23.40;99.90;;;;;;4966893;28;19977;-73
2021/08/12 09:19:58;;;;;;;;;;;23.30;99.90;;;;;;4959409;28;19928;-74
2021/08/12 09:22:46;;;;;;;;;;;23.30;99.90;;;;;;4939087;29;19966;-74
2021/08/12 09:25:15;;;;;;;;;;;23.40;99.90;;;;;;4948512;29;19933;-74
2021/08/12 09:27:42;;;;;;;;;;;23.50;99.90;;;;;;4970996;28;20029;-74
2021/08/12 09:30:15;;;;;;;;;;;23.70;99.90;;;;;;4957836;28;19927;-74
2021/08/12 09:32:47;;;;;;;;;;;23.80;99.90;;;;;;4950911;29;20021;-74
2021/08/12 09:35:27;;;;;;;;;;;24.00;99.90;;;;;;4946166;28;19966;-74
2021/08/12 09:38:08;;;;;;;;;;;24.10;99.90;;;;;;4940033;29;19926;-74
2021/08/12 09:40:40;;;;;;;;;;;24.20;99.90;;;;;;4970838;28;19926;-74
2021/08/12 09:43:12;;;;;;;;;;;24.40;99.90;;;;;;4969820;28;19926;-74
2021/08/12 09:45:39;;;;;;;;;;;24.60;99.90;;;;;;4970402;28;19930;-74
2021/08/12 09:48:11;;;;;;;;;;;24.70;99.90;;;;;;4954102;28;20074;-74
2021/08/12 09:50:43;;;;;;;;;;;24.80;99.90;;;;;;4971075;28;20029;-73
2021/08/12 09:53:19;;;;;;;;;;;25.00;99.90;;;;;;4964043;28;19940;-74
2021/08/12 09:55:51;;;;;;;;;;;25.20;99.90;;;;;;4966491;28;19958;-74
2021/08/12 09:58:32;;;;;;;;;;;25.20;99.90;;;;;;4952521;29;19932;-72
2021/08/12 10:01:18;;;;;;;;;;;25.30;99.90;;;;;;4966938;28;19949;-73
2021/08/12 10:03:54;;;;;;;;;;;25.50;99.90;;;;;;4963901;28;19937;-72
2021/08/12 10:06:27;;;;;;;;;;;25.60;99.90;;;;;;4942971;28;19930;-73
2021/08/12 10:09:13;;;;;;;;;;;25.70;99.90;;;;;;4947682;29;19980;-73
2021/08/12 10:11:45;;;;;;;;;;;25.70;99.90;;;;;;4945773;29;19954;-73
2021/08/12 10:14:17;;;;;;;;;;;25.80;99.90;;;;;;4948080;29;19927;-73
2021/08/12 10:16:48;;;;;;;;;;;25.90;99.90;;;;;;4953713;29;20276;-73
2021/08/12 10:19:20;;;;;;;;;;;26.00;99.90;;;;;;4941856;29;20385;-73
2021/08/12 10:21:52;;;;;;;;;;;26.10;99.90;;;;;;4967088;28;19976;-73
2021/08/12 10:24:25;;;;;;;;;;;26.20;99.90;;;;;;4938757;29;19926;-73
2021/08/12 10:26:58;;;;;;;;;;;26.30;99.90;;;;;;4965488;28;19927;-73
2021/08/12 10:29:34;;;;;;;;;;;26.30;99.90;;;;;;4949565;28;20341;-73
2021/08/12 10:32:07;;;;;;;;;;;26.50;99.90;;;;;;4952372;29;19985;-73
2021/08/12 10:34:40;;;;;;;;;;;26.50;99.90;;;;;;4945404;29;19930;-73
2021/08/12 10:37:12;;;;;;;;;;;26.60;99.90;;;;;;4954603;29;19969;-72
2021/08/12 10:39:43;;;;;;;;;;;26.70;99.90;;;;;;4955781;28;20393;-73
2021/08/12 10:42:21;;;;;;;;;;;26.80;99.90;;;;;;4962273;28;19930;-72
2021/08/12 10:44:56;;;;;;;;;;;26.90;99.90;;;;;;4965721;28;19942;-72
2021/08/12 10:47:40;;;;;;;;;;;27.00;99.90;;;;;;4969691;28;19927;-72
2021/08/12 10:50:26;;;;;;;;;;;27.10;99.90;;;;;;4969514;28;19934;-73
2021/08/12 10:53:02;;;;;;;;;;;27.20;99.90;;;;;;4933957;29;20518;-73
2021/08/12 10:55:35;;;;;;;;;;;27.30;99.90;;;;;;4950653;29;19974;-73
2021/08/12 10:58:22;;;;;;;;;;;27.40;99.90;;;;;;4956934;28;19926;-73
2021/08/12 11:00:59;;;;;;;;;;;27.50;99.90;;;;;;4955275;28;20613;-73
2021/08/12 11:03:34;;;;;;;;;;;27.60;99.90;;;;;;4952858;28;19933;-72
2021/08/12 11:06:06;;;;;;;;;;;27.70;99.90;;;;;;4949706;28;19937;-72
2021/08/12 11:08:50;;;;;;;;;;;27.90;99.90;;;;;;4950553;29;20307;-75
2021/08/12 11:11:26;;;;;;;;;;;28.00;99.90;;;;;;4953244;29;20346;-72
2021/08/12 11:13:54;;;;;;;;;;;28.10;99.90;;;;;;4953790;28;19977;-73
2021/08/12 11:16:26;;;;;;;;;;;28.30;99.90;;;;;;4964902;28;19935;-72
2021/08/12 11:18:59;;;;;;;;;;;28.30;99.90;;;;;;4951166;29;20021;-72
2021/08/12 11:21:30;;;;;;;;;;;28.40;99.90;;;;;;4968369;28;19926;-73
2021/08/12 11:24:06;;;;;;;;;;;28.40;99.90;;;;;;4948076;29;19926;-73
2021/08/12 11:26:44;;;;;;;;;;;28.50;99.90;;;;;;4954288;28;20139;-72
2021/08/12 11:29:28;;;;;;;;;;;28.40;99.90;;;;;;4954161;29;19930;-72
2021/08/12 11:32:24;;;;;;;;;;;28.50;99.90;;;;;;4964586;28;19926;-72
2021/08/12 11:34:57;;;;;;;;;;;28.50;99.90;;;;;;4952819;29;19931;-72
2021/08/12 11:37:29;;;;;;;;;;;28.60;99.90;;;;;;4964903;28;20017;-73
2021/08/12 11:40:00;;;;;;;;;;;28.60;99.90;;;;;;4946164;29;19989;-72
2021/08/12 11:42:27;;;;;;;;;;;28.80;99.90;;;;;;4943111;28;19978;-72
2021/08/12 11:44:56;;;;;;;;;;;28.80;99.90;;;;;;4949197;29;19927;-73
2021/08/12 11:47:23;;;;;;;;;;;28.80;99.90;;;;;;4952675;29;19934;-72
2021/08/12 11:49:56;;;;;;;;;;;28.90;99.90;;;;;;4945338;28;19930;-72
2021/08/12 11:52:46;;;;;;;;;;;28.80;99.90;;;;;;4951751;28;20018;-74
2021/08/12 11:55:19;;;;;;;;;;;28.80;99.90;;;;;;4944113;29;19930;-72
2021/08/12 11:57:52;;;;;;;;;;;28.80;99.90;;;;;;4968985;28;19934;-73
2021/08/12 12:00:27;;;;;;;;;;;28.90;99.90;;;;;;4968352;28;19949;-73
2021/08/12 12:03:06;;;;;;;;;;;29.00;99.90;;;;;;4939664;28;20393;-73
2021/08/12 12:05:37;;;;;;;;;;;29.20;99.90;;;;;;4952482;29;19926;-72
2021/08/12 12:08:11;;;;;;;;;;;29.20;99.90;;;;;;4950062;28;19926;-72
2021/08/12 12:10:43;;;;;;;;;;;29.20;99.90;;;;;;4968555;28;19926;-73
2021/08/12 12:13:17;;;;;;;;;;;29.30;99.90;;;;;;4945154;29;20145;-72
2021/08/12 12:15:52;;;;;;;;;;;29.30;99.90;;;;;;4936239;29;19934;-73
2021/08/12 12:18:34;;;;;;;;;;;29.40;99.90;;;;;;4953541;28;20015;-72
2021/08/12 12:21:14;;;;;;;;;;;29.50;99.90;;;;;;4956182;28;19974;-72
2021/08/12 12:23:47;;;;;;;;;;;29.60;99.90;;;;;;4944656;29;19931;-72
2021/08/12 12:26:32;;;;;;;;;;;29.70;99.90;;;;;;4943157;29;19931;-72
2021/08/12 12:29:10;;;;;;;;;;;29.90;99.90;;;;;;4944457;29;19974;-72
2021/08/12 12:31:57;;;;;;;;;;;29.90;99.90;;;;;;4951576;28;19985;-74
2021/08/12 12:34:24;;;;;;;;;;;29.90;99.50;;;;;;4967596;28;19926;-73
2021/08/12 12:36:51;;;;;;;;;;;30.00;99.80;;;;;;4949251;28;19931;-74
2021/08/12 12:39:19;;;;;;;;;;;30.00;99.70;;;;;;4940278;28;19973;-73
2021/08/12 12:41:46;;;;;;;;;;;29.90;98.00;;;;;;4934105;29;19993;-73
2021/08/12 12:44:28;;;;;;;;;;;29.90;99.20;;;;;;4951455;28;19981;-74
2021/08/12 12:46:55;;;;;;;;;;;29.90;98.00;;;;;;4951848;29;20048;-73
2021/08/12 12:49:29;;;;;;;;;;;29.90;96.10;;;;;;4967992;28;19927;-72
2021/08/12 12:52:06;;;;;;;;;;;29.70;97.10;;;;;;4967493;28;19931;-73
2021/08/12 12:54:38;;;;;;;;;;;29.80;96.70;;;;;;4936670;29;20448;-74
2021/08/12 12:57:11;;;;;;;;;;;29.70;97.40;;;;;;4945876;29;19931;-73
2021/08/12 12:59:50;;;;;;;;;;;29.70;97.90;;;;;;4934589;29;20033;-73
2021/08/12 13:02:17;;;;;;;;;;;29.60;96.50;;;;;;4934275;29;20292;-73
2021/08/12 13:04:59;;;;;;;;;;;29.50;96.50;;;;;;4949244;29;19927;-73
2021/08/12 13:07:30;;;;;;;;;;;29.30;96.60;;;;;;4948855;29;19933;-73
2021/08/12 13:10:14;;;;;;;;;;;29.30;97.00;;;;;;4950813;29;19927;-73
2021/08/12 13:12:41;;;;;;;;;;;29.40;96.50;;;;;;4963822;28;19962;-72
2021/08/12 13:15:16;;;;;;;;;;;29.50;95.50;;;;;;4965298;28;19933;-73
2021/08/12 13:17:53;;;;;;;;;;;29.60;96.60;;;;;;4948856;28;20449;-73
2021/08/12 13:20:26;;;;;;;;;;;29.80;94.50;;;;;;4925565;29;20484;-72
2021/08/12 13:22:55;;;;;;;;;;;30.00;94.10;;;;;;4950782;29;19927;-72
2021/08/12 13:25:28;;;;;;;;;;;30.10;93.80;;;;;;4951707;29;19927;-73
2021/08/12 13:27:56;;;;;;;;;;;30.40;94.30;;;;;;4951060;28;19941;-73
2021/08/12 13:30:38;;;;;;;;;;;30.50;93.10;;;;;;4956511;28;19942;-73
2021/08/12 13:33:25;;;;;;;;;;;30.50;93.10;;;;;;4962912;28;19927;-73
2021/08/12 13:35:52;;;;;;;;;;;30.60;92.10;;;;;;4955577;29;19930;-73
2021/08/12 13:38:19;;;;;;;;;;;30.70;90.30;;;;;;4955632;29;19931;-74
2021/08/12 13:40:54;;;;;;;;;;;30.80;90.10;;;;;;4967555;28;20077;-74
2021/08/12 13:43:22;;;;;;;;;;;30.80;90.30;;;;;;4968182;28;19926;-73
2021/08/12 13:45:54;;;;;;;;;;;30.70;86.10;;;;;;4956187;28;20029;-73
2021/08/12 13:48:26;;;;;;;;;;;30.70;89.30;;;;;;4954606;29;20002;-73
2021/08/12 13:50:58;;;;;;;;;;;30.70;86.00;;;;;;4953887;28;19926;-73
2021/08/12 13:53:30;;;;;;;;;;;30.60;85.40;;;;;;4968740;28;20327;-74
2021/08/12 13:55:56;;;;;;;;;;;30.50;85.30;;;;;;4953181;29;19927;-73
2021/08/12 13:58:23;;;;;;;;;;;30.60;86.40;;;;;;4957036;28;19927;-73
2021/08/12 14:00:55;;;;;;;;;;;30.60;83.90;;;;;;4953384;29;20497;-73
2021/08/12 14:03:22;;;;;;;;;;;30.70;83.20;;;;;;4950315;29;20385;-73
2021/08/12 14:05:48;;;;;;;;;;;30.60;83.30;;;;;;4944267;29;19958;-73
2021/08/12 14:08:25;;;;;;;;;;;30.60;83.60;;;;;;4959690;28;20313;-74
2021/08/12 14:10:53;;;;;;;;;;;30.60;80.90;;;;;;4940956;28;19927;-73
2021/08/12 14:13:19;;;;;;;;;;;30.70;85.30;;;;;;4961368;28;19941;-73
2021/08/12 14:15:51;;;;;;;;;;;30.70;81.90;;;;;;4935830;29;19930;-73
2021/08/12 14:18:23;;;;;;;;;;;30.70;79.40;;;;;;4948338;29;21520;-73
2021/08/12 14:20:54;;;;;;;;;;;30.70;79.30;;;;;;4935495;29;19937;-73
2021/08/12 14:23:26;;;;;;;;;;;30.90;81.40;;;;;;4950154;28;19927;-73
2021/08/12 14:25:53;;;;;;;;;;;30.90;81.60;;;;;;4935080;29;20030;-73
2021/08/12 14:28:20;;;;;;;;;;;31.00;78.40;;;;;;4935154;29;20381;-73
2021/08/12 14:30:46;;;;;;;;;;;31.20;76.80;;;;;;4935343;29;19927;-74
2021/08/12 14:33:20;;;;;;;;;;;31.40;76.30;;;;;;4935690;29;20389;-75
2021/08/12 14:35:51;;;;;;;;;;;31.70;78.30;;;;;;4935468;29;19938;-73
2021/08/12 14:38:24;;;;;;;;;;;31.80;73.50;;;;;;4939526;28;19927;-73
2021/08/12 14:40:51;;;;;;;;;;;32.00;72.80;;;;;;4955194;29;19930;-73
2021/08/12 14:43:25;;;;;;;;;;;32.20;73.40;;;;;;4955008;29;19932;-74
2021/08/12 14:45:57;;;;;;;;;;;32.50;73.10;;;;;;4938671;29;19926;-74
2021/08/12 14:48:24;;;;;;;;;;;32.70;72.50;;;;;;4969650;28;20021;-73